Time;durP1;ratioP1;P1;durP2;ratioP2;P2;SDS_P1;SDS_P2;PMS_P1;PMS_P2;Temp;Humidity;BMP_temperature;BMP_pressure;BME280_temperature;BME280_humidity;BME280_pressure;Samples;Min_cycle;Max_cycle;Signal;HPM_P1;HPM_P2
2023/02/16 00:01:53;;;;;;;1.30;0.50;;;9.70;54.10;;;;;;5044723;28;20047;-84
2023/02/16 00:04:20;;;;;;;1.50;0.60;;;9.70;54.10;;;;;;5045202;28;20033;-82
2023/02/16 00:06:47;;;;;;;0.52;0.52;;;9.70;54.10;;;;;;5044532;28;20123;-82
2023/02/16 00:09:14;;;;;;;2.58;0.40;;;9.70;54.10;;;;;;5077670;28;20025;-81
2023/02/16 00:14:26;;;;;;;1.13;0.60;;;9.70;54.10;;;;;;5044911;28;20040;-81
2023/02/16 00:16:53;;;;;;;0.65;0.57;;;9.80;54.10;;;;;;5045550;28;20025;-81
2023/02/16 00:19:29;;;;;;;0.65;0.60;;;9.70;54.10;;;;;;5044104;28;20043;-79
2023/02/16 00:21:57;;;;;;;1.00;0.43;;;9.70;54.20;;;;;;5044981;28;20706;-80
2023/02/16 00:24:25;;;;;;;1.02;0.63;;;9.70;54.20;;;;;;5045039;28;20074;-81
2023/02/16 00:26:52;;;;;;;1.17;0.57;;;9.70;54.10;;;;;;5045798;28;20079;-79
2023/02/16 00:29:29;;;;;;;0.38;0.30;;;9.70;54.10;;;;;;5045345;28;20082;-81
2023/02/16 00:31:57;;;;;;;0.68;0.50;;;9.70;54.00;;;;;;5060301;28;20116;-79
2023/02/16 00:34:23;;;;;;;0.50;0.40;;;9.70;54.00;;;;;;5044183;28;20036;-81
2023/02/16 00:36:49;;;;;;;1.58;0.50;;;9.70;53.90;;;;;;5043944;28;20029;-81
2023/02/16 00:39:15;;;;;;;0.73;0.52;;;9.80;54.00;;;;;;5045556;28;20352;-81
2023/02/16 00:41:49;;;;;;;1.27;0.70;;;9.70;53.90;;;;;;5045232;28;20062;-80
2023/02/16 00:44:19;;;;;;;0.40;0.40;;;9.70;53.80;;;;;;5043974;28;20033;-80
2023/02/16 00:46:46;;;;;;;2.85;0.50;;;9.70;53.70;;;;;;5027848;28;20733;-80
2023/02/16 00:49:20;;;;;;;0.52;0.40;;;9.70;53.70;;;;;;5045716;28;20037;-81
2023/02/16 00:51:47;;;;;;;0.65;0.40;;;9.70;53.80;;;;;;5060695;28;20530;-82
2023/02/16 00:54:13;;;;;;;1.70;0.40;;;9.70;53.90;;;;;;5078357;28;20079;-82
2023/02/16 00:56:40;;;;;;;1.70;0.40;;;9.70;53.90;;;;;;5043464;28;20037;-82
2023/02/16 00:59:15;;;;;;;0.47;0.30;;;9.70;54.00;;;;;;5061297;28;20082;-82
2023/02/16 01:01:42;;;;;;;0.82;0.25;;;9.70;54.10;;;;;;5064839;28;20040;-81
2023/02/16 01:04:14;;;;;;;0.52;0.50;;;9.70;54.00;;;;;;5047297;28;20530;-81
2023/02/16 01:12:15;;;;;;;1.27;0.28;;;9.70;53.90;;;;;;5076949;28;20029;-80
2023/02/16 01:14:43;;;;;;;0.75;0.40;;;9.70;53.90;;;;;;5044672;28;20079;-81
2023/02/16 01:17:10;;;;;;;0.52;0.30;;;9.70;53.90;;;;;;5059960;28;20036;-80
2023/02/16 01:19:36;;;;;;;0.38;0.38;;;9.70;53.90;;;;;;5076000;28;20515;-80
2023/02/16 01:22:02;;;;;;;2.00;0.40;;;9.70;53.90;;;;;;5061334;28;20037;-80
2023/02/16 01:24:28;;;;;;;0.28;0.28;;;9.70;53.90;;;;;;5062795;28;20520;-80
2023/02/16 01:26:54;;;;;;;0.82;0.30;;;9.70;53.90;;;;;;5047833;28;20581;-79
2023/02/16 01:29:21;;;;;;;0.47;0.38;;;9.70;53.80;;;;;;5047382;28;20124;-79
2023/02/16 01:31:48;;;;;;;1.10;0.40;;;9.70;53.90;;;;;;5030227;28;20025;-79
2023/02/16 01:34:14;;;;;;;1.10;0.50;;;9.60;53.80;;;;;;5047832;28;20029;-80
2023/02/16 01:36:45;;;;;;;1.08;0.50;;;9.70;53.80;;;;;;5047550;28;20025;-80
2023/02/16 01:39:14;;;;;;;0.30;0.30;;;9.70;53.90;;;;;;5063768;28;20033;-81
2023/02/16 01:42:05;;;;;;;1.13;0.40;;;9.70;54.00;;;;;;5046246;28;20045;-81
2023/02/16 01:44:43;;;;;;;0.60;0.30;;;9.70;54.00;;;;;;5043663;28;20698;-80
2023/02/16 01:47:33;;;;;;;0.47;0.40;;;9.70;54.00;;;;;;5063991;28;20514;-79
2023/02/16 01:50:10;;;;;;;3.38;0.60;;;9.60;54.00;;;;;;5087221;28;20052;-80
2023/02/16 01:52:42;;;;;;;0.63;0.30;;;9.60;53.90;;;;;;5067110;28;20044;-81
2023/02/16 01:55:19;;;;;;;0.30;0.30;;;9.60;53.90;;;;;;5051122;28;20184;-80
2023/02/16 01:57:53;;;;;;;0.35;0.35;;;9.60;53.90;;;;;;5046912;28;20045;-82
2023/02/16 02:00:47;;;;;;;0.50;0.28;;;9.60;53.90;;;;;;5047692;28;20037;-79
2023/02/16 02:06:06;;;;;;;1.02;0.40;;;9.60;53.90;;;;;;5079807;28;20507;-81
2023/02/16 02:08:40;;;;;;;0.65;0.30;;;9.60;53.90;;;;;;5054408;28;20470;-81
2023/02/16 02:11:22;;;;;;;0.57;0.32;;;9.60;54.00;;;;;;5046905;28;20045;-81
2023/02/16 02:14:16;;;;;;;0.40;0.40;;;9.60;54.10;;;;;;5079941;28;20088;-82
2023/02/16 02:17:06;;;;;;;0.85;0.40;;;9.60;54.20;;;;;;5066115;28;20041;-82
2023/02/16 02:19:46;;;;;;;0.50;0.50;;;9.60;54.20;;;;;;5037467;28;20057;-82
2023/02/16 02:25:41;;;;;;;1.05;0.40;;;9.60;54.20;;;;;;5061518;28;20072;-84
2023/02/16 02:28:53;;;;;;;0.45;0.40;;;9.60;54.20;;;;;;5066673;28;20414;-84
2023/02/16 02:31:40;;;;;;;0.60;0.40;;;9.60;54.10;;;;;;5049326;28;20058;-84
2023/02/16 02:34:35;;;;;;;0.95;0.77;;;9.60;54.10;;;;;;5025476;28;20029;-83
2023/02/16 02:37:14;;;;;;;1.08;0.63;;;9.60;54.10;;;;;;5027263;28;20110;-84
2023/02/16 02:39:55;;;;;;;1.10;0.40;;;9.60;54.10;;;;;;5052138;28;20041;-84
2023/02/16 02:42:44;;;;;;;0.77;0.30;;;9.60;54.10;;;;;;5061717;28;20059;-85
2023/02/16 02:45:21;;;;;;;1.02;0.55;;;9.60;54.10;;;;;;5060514;28;20037;-83
2023/02/16 02:47:48;;;;;;;0.30;0.30;;;9.60;54.00;;;;;;5041610;28;20123;-81
2023/02/16 02:50:36;;;;;;;0.28;0.25;;;9.60;54.00;;;;;;5082477;28;20059;-81
2023/02/16 02:53:07;;;;;;;0.57;0.30;;;9.60;54.00;;;;;;5080456;28;20035;-80
2023/02/16 03:01:12;;;;;;;0.60;0.40;;;9.50;54.00;;;;;;5062106;28;20033;-80
2023/02/16 03:03:49;;;;;;;2.05;0.40;;;9.50;54.00;;;;;;5046586;28;20124;-80
2023/02/16 03:06:32;;;;;;;0.52;0.38;;;9.50;54.00;;;;;;5057996;28;20124;-80
2023/02/16 03:09:10;;;;;;;0.35;0.32;;;9.50;54.00;;;;;;5046408;28;20538;-80
2023/02/16 03:14:47;;;;;;;0.50;0.50;;;9.50;53.90;;;;;;5046243;28;20189;-80
2023/02/16 03:31:17;;;;;;;0.47;0.30;;;9.50;53.90;;;;;;5044795;28;20435;-80
2023/02/16 03:33:44;;;;;;;0.98;0.60;;;9.50;54.00;;;;;;5061906;28;20556;-82
2023/02/16 03:36:11;;;;;;;0.63;0.45;;;9.50;54.00;;;;;;5079234;28;20120;-81
2023/02/16 03:38:38;;;;;;;0.75;0.40;;;9.50;54.10;;;;;;5045264;28;20400;-84
2023/02/16 03:41:05;;;;;;;0.63;0.55;;;9.50;54.00;;;;;;5084982;28;20047;-91
2023/02/16 03:43:31;;;;;;;0.68;0.50;;;9.50;54.00;;;;;;5067080;28;20032;-92
2023/02/16 03:45:57;;;;;;;0.50;0.50;;;9.50;54.00;;;;;;5047970;28;20079;-79
2023/02/16 03:48:23;;;;;;;0.40;0.30;;;9.50;54.00;;;;;;5040875;28;20055;-87
2023/02/16 03:50:49;;;;;;;1.02;0.57;;;9.50;54.00;;;;;;5058256;28;20029;-88
2023/02/16 03:53:15;;;;;;;0.80;0.47;;;9.50;54.00;;;;;;5042472;28;20897;-88
2023/02/16 03:55:44;;;;;;;0.65;0.40;;;9.50;54.00;;;;;;5075700;28;20029;-88
2023/02/16 03:58:15;;;;;;;1.30;0.45;;;9.50;54.00;;;;;;5033438;28;20029;-89
2023/02/16 04:00:42;;;;;;;1.02;0.43;;;9.50;54.00;;;;;;5041300;28;20032;-85
2023/02/16 04:03:08;;;;;;;0.60;0.40;;;9.50;53.90;;;;;;5042455;28;20036;-83
2023/02/16 04:05:34;;;;;;;0.50;0.50;;;9.50;53.90;;;;;;5045600;28;20068;-85
2023/02/16 04:08:00;;;;;;;0.57;0.45;;;9.50;53.90;;;;;;5043789;28;20039;-76
2023/02/16 04:10:26;;;;;;;1.38;0.65;;;9.50;53.80;;;;;;5074904;28;20045;-76
2023/02/16 04:12:52;;;;;;;0.73;0.65;;;9.50;53.80;;;;;;5044694;28;20029;-77
2023/02/16 04:15:22;;;;;;;0.82;0.57;;;9.50;53.80;;;;;;5042970;28;20060;-77
2023/02/16 04:17:48;;;;;;;0.73;0.45;;;9.50;53.80;;;;;;5057529;28;20040;-76
2023/02/16 04:20:16;;;;;;;1.08;0.68;;;9.50;53.80;;;;;;5043273;28;20045;-77
2023/02/16 04:22:43;;;;;;;1.35;0.90;;;9.40;53.70;;;;;;5044003;28;20037;-77
2023/02/16 04:25:10;;;;;;;2.45;0.68;;;9.50;53.70;;;;;;5041952;28;20059;-78
2023/02/16 04:27:36;;;;;;;0.43;0.43;;;9.50;53.70;;;;;;5043275;28;20400;-76
2023/02/16 04:30:04;;;;;;;0.63;0.60;;;9.40;53.60;;;;;;5042439;28;20630;-77
2023/02/16 04:32:30;;;;;;;0.95;0.60;;;9.50;53.60;;;;;;5042436;28;20028;-77
2023/02/16 04:34:56;;;;;;;1.48;0.80;;;9.40;53.70;;;;;;5024787;28;20660;-78
2023/02/16 04:37:22;;;;;;;0.68;0.68;;;9.50;53.70;;;;;;5042842;28;20028;-80
2023/02/16 04:39:48;;;;;;;1.02;0.80;;;9.40;53.60;;;;;;5044647;28;20515;-78
2023/02/16 04:42:14;;;;;;;1.42;0.85;;;9.40;53.60;;;;;;5044532;28;20052;-77
2023/02/16 04:44:40;;;;;;;0.77;0.45;;;9.40;53.60;;;;;;5043992;28;20094;-79
2023/02/16 04:47:06;;;;;;;2.50;0.85;;;9.40;53.80;;;;;;5043141;28;20494;-79
2023/02/16 04:49:32;;;;;;;2.08;0.60;;;9.40;54.20;;;;;;5043941;28;20033;-77
2023/02/16 04:51:59;;;;;;;4.03;0.88;;;9.40;54.50;;;;;;5060471;28;20025;-78
2023/02/16 04:54:26;;;;;;;4.55;0.95;;;9.40;55.00;;;;;;5043775;28;20033;-77
2023/02/16 04:56:52;;;;;;;1.20;0.70;;;9.40;55.60;;;;;;5043072;28;20033;-76
2023/02/16 04:59:18;;;;;;;2.17;0.80;;;9.40;55.80;;;;;;5059338;28;20400;-77
2023/02/16 05:01:44;;;;;;;2.55;0.82;;;9.40;56.00;;;;;;5043339;28;20542;-78
2023/02/16 05:04:10;;;;;;;1.40;0.85;;;9.40;56.10;;;;;;5043525;28;20094;-77
2023/02/16 05:06:37;;;;;;;1.40;1.10;;;9.40;56.20;;;;;;5043322;28;20470;-77
2023/02/16 05:09:05;;;;;;;3.42;1.13;;;9.40;56.40;;;;;;5044337;28;20110;-77
2023/02/16 05:17:21;;;;;;;2.42;0.90;;;9.40;56.50;;;;;;5043691;28;20037;-77
2023/02/16 05:19:53;;;;;;;5.55;1.30;;;9.40;56.40;;;;;;5042848;28;20671;-77
2023/02/16 05:22:19;;;;;;;1.13;0.80;;;9.40;56.40;;;;;;5059158;28;20051;-77
2023/02/16 05:24:46;;;;;;;2.55;1.13;;;9.40;56.90;;;;;;5059323;28;20098;-77
2023/02/16 05:27:15;;;;;;;1.13;0.80;;;9.40;56.10;;;;;;5042653;28;20662;-77
2023/02/16 05:29:41;;;;;;;1.27;0.85;;;9.40;56.00;;;;;;5042877;28;20037;-76
2023/02/16 05:32:07;;;;;;;1.02;0.82;;;9.40;55.90;;;;;;5044030;28;20037;-78
2023/02/16 05:34:33;;;;;;;3.35;1.38;;;9.40;55.70;;;;;;5043268;28;20041;-78
2023/02/16 05:36:58;;;;;;;1.33;0.80;;;9.40;55.50;;;;;;5059607;28;20128;-77
2023/02/16 05:39:24;;;;;;;1.85;1.08;;;9.40;55.40;;;;;;5043421;28;20130;-77
2023/02/16 05:41:50;;;;;;;1.67;1.00;;;9.40;55.40;;;;;;5058061;28;20064;-77
2023/02/16 05:44:17;;;;;;;0.88;0.85;;;9.40;55.20;;;;;;5063698;28;20036;-77
2023/02/16 05:46:45;;;;;;;1.77;0.93;;;9.40;55.10;;;;;;5064241;28;20047;-80
2023/02/16 05:49:11;;;;;;;1.58;0.77;;;9.40;55.00;;;;;;5064337;28;20127;-79
2023/02/16 05:51:38;;;;;;;2.35;0.93;;;9.40;54.90;;;;;;5063814;28;20029;-77
2023/02/16 05:54:05;;;;;;;2.13;0.63;;;9.40;54.80;;;;;;5064385;28;20124;-76
2023/02/16 05:56:31;;;;;;;3.45;1.15;;;9.40;54.70;;;;;;5062718;28;20119;-77
2023/02/16 05:58:59;;;;;;;1.00;0.70;;;9.40;54.70;;;;;;5061962;28;20140;-77
2023/02/16 06:01:26;;;;;;;1.98;0.88;;;9.40;54.70;;;;;;5061384;28;20423;-77
2023/02/16 06:03:52;;;;;;;3.00;1.00;;;9.40;54.80;;;;;;5062187;28;20040;-79
2023/02/16 06:06:19;;;;;;;2.03;0.55;;;9.40;54.80;;;;;;5062440;28;20043;-78
2023/02/16 06:08:45;;;;;;;2.70;0.88;;;9.40;54.90;;;;;;5063988;28;20454;-76
2023/02/16 06:14:16;;;;;;;1.52;0.98;;;9.40;54.90;;;;;;4970892;28;20050;-78
2023/02/16 06:16:44;;;;;;;0.80;0.68;;;9.40;54.80;;;;;;5002928;28;20441;-79
2023/02/16 06:19:11;;;;;;;1.20;1.00;;;9.40;54.70;;;;;;5003434;28;20381;-80
2023/02/16 06:21:38;;;;;;;1.15;0.90;;;9.40;54.60;;;;;;4980682;28;20042;-79
2023/02/16 06:24:05;;;;;;;1.60;0.60;;;9.40;54.60;;;;;;4970545;28;20579;-79
2023/02/16 06:26:31;;;;;;;1.77;0.80;;;9.40;54.40;;;;;;4985812;28;20061;-80
2023/02/16 06:28:57;;;;;;;2.25;1.08;;;9.40;54.30;;;;;;5003680;28;20030;-80
2023/02/16 06:31:24;;;;;;;1.33;1.13;;;9.50;54.30;;;;;;5002929;28;20041;-80
2023/02/16 06:33:50;;;;;;;1.13;1.02;;;9.40;54.20;;;;;;4986159;28;20048;-76
2023/02/16 06:36:17;;;;;;;1.35;0.70;;;9.40;54.00;;;;;;5001208;28;20046;-76
2023/02/16 06:38:43;;;;;;;1.80;0.70;;;9.50;54.00;;;;;;4985483;28;20080;-77
2023/02/16 06:41:10;;;;;;;0.60;0.60;;;9.50;53.90;;;;;;4984493;28;20223;-76
2023/02/16 06:43:36;;;;;;;2.78;1.00;;;9.50;53.70;;;;;;5001165;28;20050;-75
2023/02/16 06:46:02;;;;;;;0.82;0.77;;;9.50;53.70;;;;;;5002013;28;20055;-76
2023/02/16 06:48:28;;;;;;;0.45;0.45;;;9.50;53.70;;;;;;5026968;28;20041;-76
2023/02/16 06:50:54;;;;;;;0.88;0.60;;;9.50;53.70;;;;;;5057362;28;20024;-75
2023/02/16 06:53:20;;;;;;;0.90;0.60;;;9.50;53.60;;;;;;5070979;28;20128;-77
2023/02/16 06:55:48;;;;;;;0.70;0.70;;;9.50;53.50;;;;;;5058260;28;20037;-79
2023/02/16 06:58:14;;;;;;;0.75;0.75;;;9.60;53.50;;;;;;5045618;28;20029;-77
2023/02/16 07:00:40;;;;;;;1.63;0.60;;;9.60;53.40;;;;;;5065092;28;20044;-76
2023/02/16 07:03:06;;;;;;;0.73;0.65;;;9.60;53.30;;;;;;5063265;28;20041;-78
2023/02/16 07:05:32;;;;;;;2.05;0.73;;;9.60;53.80;;;;;;5064668;28;20820;-76
2023/02/16 07:07:58;;;;;;;1.20;0.88;;;9.60;53.20;;;;;;5064138;28;20051;-76
2023/02/16 07:10:24;;;;;;;0.85;0.80;;;9.60;53.10;;;;;;5062252;28;20036;-77
2023/02/16 07:12:50;;;;;;;1.23;0.90;;;9.60;53.00;;;;;;5064191;28;20090;-77
2023/02/16 07:15:16;;;;;;;0.95;0.70;;;9.60;53.10;;;;;;5063785;28;20037;-76
2023/02/16 07:17:42;;;;;;;2.75;0.82;;;9.70;52.90;;;;;;5044560;28;20554;-76
2023/02/16 07:20:08;;;;;;;0.70;0.57;;;9.70;53.00;;;;;;5044117;28;20037;-76
2023/02/16 07:22:34;;;;;;;0.73;0.70;;;9.70;53.00;;;;;;5040960;28;20064;-76
2023/02/16 07:25:00;;;;;;;1.02;0.75;;;9.70;52.80;;;;;;5044791;28;20056;-78
2023/02/16 07:27:26;;;;;;;1.08;0.95;;;9.80;52.90;;;;;;5026466;28;20033;-76
2023/02/16 07:29:52;;;;;;;1.17;0.70;;;9.80;52.80;;;;;;5042216;28;20034;-77
2023/02/16 07:32:18;;;;;;;1.45;0.82;;;9.80;52.60;;;;;;5043660;28;20423;-76
2023/02/16 07:34:47;;;;;;;0.73;0.60;;;9.80;52.50;;;;;;5058902;28;20044;-79
2023/02/16 07:37:13;;;;;;;1.42;1.00;;;9.80;52.50;;;;;;5043937;28;20411;-77
2023/02/16 07:39:39;;;;;;;0.70;0.70;;;9.90;52.40;;;;;;5077518;28;20033;-77
2023/02/16 07:42:05;;;;;;;1.63;0.80;;;9.90;52.30;;;;;;5044748;28;20466;-77
2023/02/16 07:44:32;;;;;;;1.70;0.70;;;9.90;52.20;;;;;;5043419;28;21092;-78
2023/02/16 07:46:59;;;;;;;1.05;0.80;;;9.90;52.20;;;;;;5058961;28;20032;-77
2023/02/16 07:49:24;;;;;;;1.17;0.90;;;9.90;52.10;;;;;;5043844;28;20068;-77
2023/02/16 07:51:50;;;;;;;1.40;0.70;;;9.90;51.90;;;;;;5042726;28;20112;-77
2023/02/16 07:54:16;;;;;;;1.77;0.93;;;9.90;51.80;;;;;;5042894;28;20045;-76
2023/02/16 07:56:42;;;;;;;0.65;0.55;;;9.90;51.70;;;;;;5043057;28;20041;-77
2023/02/16 07:59:08;;;;;;;1.55;0.80;;;9.90;51.60;;;;;;5044276;28;20029;-77
2023/02/16 08:01:36;;;;;;;0.95;0.80;;;9.90;51.60;;;;;;5044468;28;20107;-78
2023/02/16 08:04:02;;;;;;;0.80;0.80;;;9.90;51.60;;;;;;5044215;28;20047;-77
2023/02/16 08:06:28;;;;;;;1.17;1.02;;;9.90;51.40;;;;;;5044130;28;20032;-78
2023/02/16 08:08:54;;;;;;;0.70;0.70;;;9.90;51.50;;;;;;5057835;28;20037;-77
2023/02/16 08:11:23;;;;;;;1.00;0.90;;;9.90;51.40;;;;;;5058896;28;20407;-78
2023/02/16 08:13:50;;;;;;;0.60;0.60;;;9.90;51.40;;;;;;5043546;28;20055;-77
2023/02/16 08:16:24;;;;;;;0.95;0.80;;;9.90;51.30;;;;;;5040221;28;20028;-77
2023/02/16 08:18:51;;;;;;;0.82;0.77;;;9.90;51.30;;;;;;5058077;28;20119;-76
2023/02/16 08:21:22;;;;;;;1.10;1.00;;;9.90;51.30;;;;;;5038983;28;20041;-77
2023/02/16 08:24:00;;;;;;;1.48;0.80;;;9.90;51.40;;;;;;5057816;28;20099;-80
2023/02/16 08:26:30;;;;;;;1.25;0.77;;;9.90;51.30;;;;;;5039898;28;20037;-76
2023/02/16 08:28:57;;;;;;;1.17;1.00;;;10.00;51.30;;;;;;5041326;28;20037;-77
2023/02/16 08:31:28;;;;;;;1.65;0.95;;;10.00;51.30;;;;;;5057431;28;20041;-76
2023/02/16 08:33:56;;;;;;;1.65;1.00;;;10.00;51.30;;;;;;5042858;28;20068;-77
2023/02/16 08:36:31;;;;;;;0.75;0.70;;;10.00;51.30;;;;;;5040915;28;20538;-77
2023/02/16 08:38:57;;;;;;;0.90;0.90;;;10.10;51.40;;;;;;5074916;28;20032;-77
2023/02/16 08:41:27;;;;;;;1.30;0.90;;;10.10;51.30;;;;;;5061519;28;20058;-76
2023/02/16 08:43:54;;;;;;;1.27;1.00;;;10.10;51.20;;;;;;5062397;28;20041;-79
2023/02/16 08:46:21;;;;;;;1.15;0.93;;;10.10;51.20;;;;;;5078533;28;20033;-76
2023/02/16 08:48:48;;;;;;;1.80;1.10;;;10.10;51.20;;;;;;5061361;28;20033;-76
2023/02/16 08:51:16;;;;;;;1.48;1.10;;;10.10;51.20;;;;;;5041069;28;20037;-76
2023/02/16 08:53:43;;;;;;;0.95;0.80;;;10.20;51.10;;;;;;5042805;28;20037;-77
2023/02/16 08:56:09;;;;;;;1.23;1.13;;;10.20;51.00;;;;;;5034455;28;20454;-76
2023/02/16 08:58:36;;;;;;;1.95;1.63;;;10.10;50.80;;;;;;5051723;28;20072;-76
2023/02/16 09:01:04;;;;;;;3.97;1.70;;;10.10;48.50;;;;;;5042815;28;20504;-77
2023/02/16 09:03:31;;;;;;;1.77;1.67;;;9.90;46.70;;;;;;5044514;28;20017;-78
2023/02/16 09:06:01;;;;;;;1.77;1.17;;;9.70;46.10;;;;;;5059651;28;20036;-76
2023/02/16 09:08:27;;;;;;;2.75;1.80;;;9.40;46.10;;;;;;5047204;28;20051;-77
2023/02/16 09:10:53;;;;;;;2.47;1.70;;;9.20;46.40;;;;;;5062441;28;20095;-80
2023/02/16 09:13:20;;;;;;;3.67;1.73;;;9.00;46.90;;;;;;5080142;28;20033;-79
2023/02/16 09:15:46;;;;;;;1.33;1.20;;;8.90;46.70;;;;;;5064800;28;20083;-88
2023/02/16 09:18:13;;;;;;;1.60;1.20;;;8.70;46.40;;;;;;5028326;28;20033;-84
2023/02/16 09:20:41;;;;;;;2.00;1.13;;;8.50;46.30;;;;;;5052262;28;20111;-89
2023/02/16 09:23:09;;;;;;;1.50;1.40;;;8.40;46.50;;;;;;5044740;28;20400;-85
2023/02/16 09:25:37;;;;;;;1.40;1.27;;;8.20;46.80;;;;;;5044293;28;20037;-86
2023/02/16 09:28:05;;;;;;;2.50;1.70;;;8.10;47.40;;;;;;5045023;28;20053;-85
2023/02/16 09:30:33;;;;;;;2.05;1.27;;;8.00;47.40;;;;;;5044482;28;20052;-89
2023/02/16 09:32:59;;;;;;;2.47;1.20;;;7.90;47.20;;;;;;5045050;28;20040;-83
2023/02/16 09:35:25;;;;;;;1.50;1.40;;;7.80;47.00;;;;;;5044425;28;20507;-86
2023/02/16 09:37:52;;;;;;;3.83;1.30;;;7.60;47.20;;;;;;5042867;28;20094;-83
2023/02/16 09:40:19;;;;;;;1.45;1.30;;;7.50;47.60;;;;;;5043347;28;20033;-82
2023/02/16 09:43:00;;;;;;;2.00;1.70;;;7.40;47.80;;;;;;5045544;28;20079;-84
2023/02/16 09:45:27;;;;;;;2.45;1.70;;;7.30;48.30;;;;;;5048021;28;20064;-82
2023/02/16 09:47:58;;;;;;;1.90;1.58;;;7.20;48.50;;;;;;5064435;28;20127;-80
2023/02/16 09:50:26;;;;;;;1.63;1.30;;;7.20;48.30;;;;;;5066804;28;20135;-83
2023/02/16 09:53:04;;;;;;;2.05;1.42;;;7.10;48.20;;;;;;5066987;28;20071;-83
2023/02/16 09:56:01;;;;;;;1.70;1.60;;;7.00;48.20;;;;;;5066100;28;20033;-82
2023/02/16 09:59:17;;;;;;;3.63;1.50;;;6.90;48.40;;;;;;5049558;28;20043;-85
2023/02/16 10:02:16;;;;;;;1.67;1.23;;;7.00;49.70;;;;;;5053928;28;20527;-83
2023/02/16 10:05:12;;;;;;;1.55;1.15;;;7.10;50.60;;;;;;5064635;28;20094;-80
2023/02/16 10:07:52;;;;;;;2.40;1.42;;;7.20;51.10;;;;;;5044179;28;20064;-82
2023/02/16 10:10:23;;;;;;;3.15;1.17;;;7.40;51.60;;;;;;5059355;28;20307;-84
2023/02/16 10:13:04;;;;;;;3.58;1.10;;;7.50;51.80;;;;;;5064180;28;20585;-82
2023/02/16 10:15:32;;;;;;;1.30;1.17;;;7.60;51.80;;;;;;5065383;28;20055;-79
2023/02/16 10:18:14;;;;;;;1.58;1.00;;;7.80;52.10;;;;;;5062993;28;20063;-81
2023/02/16 10:20:45;;;;;;;1.50;1.00;;;7.90;51.90;;;;;;5048849;28;20048;-82
2023/02/16 10:23:26;;;;;;;2.78;1.42;;;8.00;51.80;;;;;;5044188;28;20404;-82
2023/02/16 10:25:53;;;;;;;1.20;1.10;;;8.10;51.70;;;;;;5043119;28;20029;-80
2023/02/16 10:28:44;;;;;;;1.77;1.15;;;8.20;51.60;;;;;;5075049;28;20533;-81
2023/02/16 10:31:17;;;;;;;1.88;1.20;;;8.30;51.50;;;;;;5045266;28;20495;-83
2023/02/16 10:33:52;;;;;;;1.85;1.05;;;8.40;51.40;;;;;;5045507;28;20040;-82
2023/02/16 10:36:43;;;;;;;2.03;1.30;;;8.50;51.30;;;;;;5045107;28;20110;-81
2023/02/16 10:39:22;;;;;;;1.92;1.40;;;8.60;51.30;;;;;;5047205;28;20520;-78
2023/02/16 10:42:40;;;;;;;9.55;1.40;;;8.60;51.10;;;;;;5046651;28;20479;-78
2023/02/16 10:45:27;;;;;;;1.70;1.40;;;8.70;51.10;;;;;;5004271;28;20417;-78
2023/02/16 10:47:53;;;;;;;2.67;1.63;;;8.80;51.00;;;;;;4990293;28;20038;-77
2023/02/16 10:50:24;;;;;;;2.33;1.77;;;8.90;50.90;;;;;;5020249;28;20030;-78
2023/02/16 10:52:54;;;;;;;1.92;1.50;;;8.90;50.60;;;;;;4987563;28;20034;-78
2023/02/16 10:55:20;;;;;;;3.40;1.70;;;9.00;50.50;;;;;;5003621;28;20444;-79
2023/02/16 10:58:00;;;;;;;2.00;1.50;;;9.00;50.10;;;;;;5004764;28;20073;-78
2023/02/16 11:00:55;;;;;;;1.65;1.38;;;9.10;50.00;;;;;;5003315;28;20048;-78
2023/02/16 11:03:29;;;;;;;2.88;1.80;;;9.10;49.80;;;;;;5003911;28;20069;-77
2023/02/16 11:05:55;;;;;;;1.80;1.70;;;9.20;49.60;;;;;;5020096;28;20029;-78
2023/02/16 11:08:24;;;;;;;2.10;1.60;;;9.20;49.50;;;;;;5024120;28;20496;-78
2023/02/16 11:10:52;;;;;;;3.22;2.08;;;9.30;49.40;;;;;;4998757;28;20110;-78
2023/02/16 11:13:32;;;;;;;2.03;1.60;;;9.30;49.20;;;;;;5023276;28;20140;-79
2023/02/16 11:16:11;;;;;;;1.88;1.73;;;9.40;49.10;;;;;;5022809;28;20041;-77
2023/02/16 11:18:44;;;;;;;2.25;1.45;;;9.40;48.90;;;;;;5023765;28;20038;-77
2023/02/16 11:21:12;;;;;;;1.67;1.40;;;9.40;48.80;;;;;;5058225;28;20517;-79
2023/02/16 11:23:39;;;;;;;1.98;1.52;;;9.50;48.80;;;;;;5065973;28;20448;-79
2023/02/16 11:26:20;;;;;;;3.22;1.55;;;9.50;48.80;;;;;;5066013;28;20036;-78
2023/02/16 11:28:48;;;;;;;1.50;1.38;;;9.50;48.70;;;;;;5081555;28;20556;-78
2023/02/16 11:31:26;;;;;;;1.48;1.23;;;9.60;48.60;;;;;;5066203;28;20044;-77
2023/02/16 11:33:57;;;;;;;2.20;1.42;;;9.60;48.40;;;;;;5081712;28;20045;-78
2023/02/16 11:36:45;;;;;;;2.00;1.50;;;9.60;48.10;;;;;;5065894;28;20079;-79
2023/02/16 11:39:14;;;;;;;1.63;1.33;;;9.60;48.00;;;;;;5062699;28;20037;-78
2023/02/16 11:42:03;;;;;;;1.02;1.02;;;9.70;47.90;;;;;;5045106;28;20041;-78
2023/02/16 11:44:45;;;;;;;2.85;1.52;;;9.70;48.00;;;;;;5043935;28;20063;-77
2023/02/16 11:47:27;;;;;;;1.50;1.40;;;9.70;47.90;;;;;;5045993;28;20037;-83
2023/02/16 11:50:30;;;;;;;1.23;1.13;;;9.70;47.90;;;;;;5047834;28;20407;-80
2023/02/16 11:53:13;;;;;;;3.65;1.90;;;9.70;47.90;;;;;;5043126;28;20037;-80
2023/02/16 11:55:46;;;;;;;4.30;1.40;;;9.80;48.10;;;;;;5050024;28;20041;-79
2023/02/16 11:58:12;;;;;;;2.30;1.58;;;9.80;48.10;;;;;;5048053;28;20479;-79
2023/02/16 12:00:42;;;;;;;1.33;1.23;;;9.80;48.10;;;;;;5046200;28;20044;-84
2023/02/16 12:03:20;;;;;;;1.77;1.50;;;9.80;48.10;;;;;;5028280;28;20219;-83
2023/02/16 12:06:18;;;;;;;2.95;1.52;;;9.80;48.10;;;;;;5062095;28;20140;-84
2023/02/16 12:09:05;;;;;;;1.60;1.50;;;9.80;48.00;;;;;;5047187;28;20044;-85
2023/02/16 12:12:02;;;;;;;3.47;1.67;;;9.80;48.00;;;;;;5046469;28;20127;-82
2023/02/16 12:14:43;;;;;;;3.70;1.75;;;9.90;48.00;;;;;;5046746;28;20037;-86
2023/02/16 12:17:39;;;;;;;1.40;1.30;;;9.90;47.80;;;;;;5042336;28;20076;-80
2023/02/16 12:20:32;;;;;;;2.47;1.40;;;9.90;47.90;;;;;;5043449;28;20044;-88
2023/02/16 12:23:27;;;;;;;2.47;1.52;;;9.90;48.10;;;;;;5077911;28;20105;-87
2023/02/16 12:26:30;;;;;;;1.75;1.42;;;9.90;48.30;;;;;;5048540;28;20056;-83
2023/02/16 12:29:05;;;;;;;3.03;1.73;;;9.90;48.40;;;;;;5028856;28;20350;-84
2023/02/16 12:31:46;;;;;;;2.17;1.70;;;9.90;48.50;;;;;;5048630;28;20037;-89
2023/02/16 12:34:21;;;;;;;1.60;1.50;;;9.90;48.60;;;;;;5047586;28;20037;-91
2023/02/16 12:37:00;;;;;;;1.63;1.50;;;9.90;48.60;;;;;;5047396;28;20065;-86
2023/02/16 12:39:45;;;;;;;2.13;1.92;;;9.90;48.70;;;;;;5067474;28;20318;-86
2023/02/16 12:42:24;;;;;;;1.55;1.45;;;9.90;48.70;;;;;;5047328;28;20044;-85
2023/02/16 12:44:55;;;;;;;1.92;1.73;;;9.90;48.80;;;;;;5051019;28;20068;-87
2023/02/16 12:47:48;;;;;;;3.00;1.88;;;9.90;48.60;;;;;;5064099;28;20037;-86
2023/02/16 12:50:15;;;;;;;2.15;1.80;;;9.90;48.60;;;;;;5027127;28;20037;-85
2023/02/16 12:52:46;;;;;;;4.47;1.88;;;9.90;48.40;;;;;;5063988;28;20401;-87
2023/02/16 12:55:24;;;;;;;2.08;1.88;;;9.90;48.40;;;;;;5044710;28;20594;-89
2023/02/16 12:58:15;;;;;;;1.88;1.77;;;9.90;48.40;;;;;;5043155;28;20480;-92
2023/02/16 13:00:46;;;;;;;2.25;1.98;;;9.90;48.30;;;;;;5042585;28;20099;-81
2023/02/16 13:03:18;;;;;;;2.42;1.98;;;9.90;48.40;;;;;;5055627;28;20060;-82
2023/02/16 13:05:52;;;;;;;2.05;1.90;;;9.90;48.30;;;;;;5048657;28;20029;-83
2023/02/16 13:08:42;;;;;;;10.13;2.35;;;9.90;48.30;;;;;;5041430;28;20175;-82
2023/02/16 13:11:15;;;;;;;3.03;1.95;;;9.90;48.20;;;;;;5041000;28;20128;-80
2023/02/16 13:13:43;;;;;;;2.92;2.47;;;9.90;48.10;;;;;;5041649;28;20087;-81
2023/02/16 13:16:26;;;;;;;2.40;2.20;;;9.90;48.10;;;;;;5074199;28;20029;-81
2023/02/16 13:18:57;;;;;;;2.42;1.90;;;9.90;48.30;;;;;;5046354;28;20071;-82
2023/02/16 13:21:48;;;;;;;2.85;1.98;;;9.90;48.40;;;;;;5078252;28;20045;-83
2023/02/16 13:24:23;;;;;;;2.80;2.25;;;9.90;48.60;;;;;;5046189;28;20056;-79
2023/02/16 13:27:01;;;;;;;4.05;2.55;;;9.90;48.90;;;;;;5045855;28;20403;-82
2023/02/16 13:30:04;;;;;;;2.33;2.03;;;9.90;49.70;;;;;;5046086;28;20033;-82
2023/02/16 13:32:43;;;;;;;3.58;2.05;;;9.90;49.40;;;;;;5046489;28;20033;-81
2023/02/16 13:35:41;;;;;;;3.55;2.55;;;9.80;49.70;;;;;;5044238;28;20495;-81
2023/02/16 13:38:26;;;;;;;3.53;3.00;;;9.90;49.90;;;;;;5046294;28;20029;-81
2023/02/16 13:41:11;;;;;;;4.07;2.42;;;9.90;50.10;;;;;;5045377;28;20395;-81
2023/02/16 13:43:54;;;;;;;4.40;3.05;;;9.80;50.20;;;;;;5045856;28;20064;-84
2023/02/16 13:46:29;;;;;;;3.20;2.67;;;9.80;50.30;;;;;;5078118;28;20040;-86
2023/02/16 13:48:55;;;;;;;3.47;3.17;;;9.80;50.40;;;;;;5044744;28;20037;-83
2023/02/16 13:51:24;;;;;;;3.08;2.63;;;9.80;50.50;;;;;;5045636;28;20033;-83
2023/02/16 13:53:58;;;;;;;3.42;2.83;;;9.80;50.60;;;;;;5044792;28;20124;-83
2023/02/16 13:56:31;;;;;;;4.13;3.28;;;9.80;50.70;;;;;;5044892;28;20033;-84
2023/02/16 13:59:19;;;;;;;3.50;2.83;;;9.80;50.70;;;;;;5044464;28;20081;-83
2023/02/16 14:01:48;;;;;;;3.05;2.67;;;9.80;50.70;;;;;;5022746;28;20041;-84
2023/02/16 14:04:22;;;;;;;6.78;2.60;;;9.80;50.70;;;;;;5007698;28;21552;-83
2023/02/16 14:07:12;;;;;;;3.90;2.75;;;9.80;50.70;;;;;;5025298;28;20132;-83
2023/02/16 14:09:38;;;;;;;2.90;2.53;;;9.80;50.80;;;;;;5017198;28;20084;-82
2023/02/16 14:12:15;;;;;;;3.10;2.72;;;9.70;50.70;;;;;;5011790;28;20120;-83